VLG8XE LEBL-LEBB
Flight info
| Callsign | VLG8XE |
|---|---|
| Flight time | 0h 47m |
| Altitude | 29000 |
| Route | GRAUS M601 CEGAM |
| Aircraft | A320/M-SDE3FGHIRWY/LB1 |
Departure
| Time | 2026-05-04 14:20 |
|---|---|
| Airport | Josep Tarradellas Barcelona-El Prat Airport (LEBL) |
Arrival
| Time | 2026-05-04 15:07 |
|---|---|
| Airport | Bilbao Airport (LEBB) |
| Time | Latitude | Longitude | Altitude | Speed | Heading |
|---|---|---|---|---|---|
| 2026-05-04 13:54 | 41.29051 | 2.08113 | 21 ft | 0 kts | 336° |
| 2026-05-04 14:10 | 41.29032 | 2.08124 | 19 ft | 4 kts | 336° |
| 2026-05-04 14:11 | 41.29008 | 2.08138 | 22 ft | 4 kts | 341° |
| 2026-05-04 14:11 | 41.28965 | 2.08116 | 20 ft | 4 kts | 59° |
| 2026-05-04 14:11 | 41.28953 | 2.08084 | 19 ft | 4 kts | 66° |
| 2026-05-04 14:12 | 41.28945 | 2.08059 | 21 ft | 4 kts | 65° |
| 2026-05-04 14:12 | 41.28941 | 2.08047 | 23 ft | 0 kts | 65° |
| 2026-05-04 14:15 | 41.28953 | 2.08091 | 19 ft | 9 kts | 79° |
| 2026-05-04 14:15 | 41.28759 | 2.08229 | 17 ft | 19 kts | 169° |
| 2026-05-04 14:16 | 41.28763 | 2.08443 | 21 ft | 20 kts | 65° |
| 2026-05-04 14:16 | 41.28832 | 2.08642 | 18 ft | 26 kts | 65° |
| 2026-05-04 14:17 | 41.28987 | 2.09093 | 17 ft | 26 kts | 65° |
| 2026-05-04 14:17 | 41.29064 | 2.09318 | 17 ft | 29 kts | 65° |
| 2026-05-04 14:17 | 41.29214 | 2.09754 | 18 ft | 26 kts | 65° |
| 2026-05-04 14:18 | 41.29270 | 2.09913 | 18 ft | 20 kts | 57° |
| 2026-05-04 14:18 | 41.29371 | 2.10213 | 16 ft | 12 kts | 97° |
| 2026-05-04 14:19 | 41.29204 | 2.10279 | 17 ft | 15 kts | 235° |
| 2026-05-04 14:19 | 41.29194 | 2.10248 | 17 ft | 1 kts | 247° |
| 2026-05-04 14:19 | 41.29110 | 2.10000 | 19 ft | 68 kts | 245° |
| 2026-05-04 14:19 | 41.28813 | 2.09137 | 19 ft | 133 kts | 245° |
| 2026-05-04 14:20 | 41.28383 | 2.07881 | 372 ft | 158 kts | 244° |
| 2026-05-04 14:20 | 41.27740 | 2.06686 | 1100 ft | 162 kts | 220° |
| 2026-05-04 14:20 | 41.26748 | 2.06030 | 1808 ft | 162 kts | 190° |
| 2026-05-04 14:21 | 41.24168 | 2.05747 | 2684 ft | 208 kts | 189° |
| 2026-05-04 14:21 | 41.22735 | 2.05354 | 3541 ft | 212 kts | 194° |
| 2026-05-04 14:21 | 41.21307 | 2.04850 | 4484 ft | 214 kts | 196° |
| 2026-05-04 14:21 | 41.19871 | 2.04321 | 5423 ft | 215 kts | 196° |
| 2026-05-04 14:22 | 41.18425 | 2.03771 | 6348 ft | 220 kts | 200° |
| 2026-05-04 14:22 | 41.17201 | 2.02504 | 7047 ft | 235 kts | 238° |
| 2026-05-04 14:22 | 41.16879 | 2.00363 | 8064 ft | 248 kts | 276° |
| 2026-05-04 14:22 | 41.17493 | 1.98196 | 9192 ft | 255 kts | 293° |
| 2026-05-04 14:23 | 41.19435 | 1.94174 | 11320 ft | 263 kts | 299° |
| 2026-05-04 14:23 | 41.20470 | 1.92157 | 12373 ft | 266 kts | 298° |
| 2026-05-04 14:23 | 41.21494 | 1.90100 | 13441 ft | 268 kts | 297° |
| 2026-05-04 14:24 | 41.22484 | 1.88030 | 14392 ft | 271 kts | 297° |
| 2026-05-04 14:24 | 41.23668 | 1.86020 | 15105 ft | 288 kts | 308° |
| 2026-05-04 14:24 | 41.25138 | 1.84056 | 15387 ft | 311 kts | 309° |
| 2026-05-04 14:24 | 41.26727 | 1.81948 | 15612 ft | 334 kts | 310° |
| 2026-05-04 14:25 | 41.28426 | 1.79704 | 15931 ft | 352 kts | 310° |
| 2026-05-04 14:25 | 41.31360 | 1.75842 | 17002 ft | 361 kts | 310° |
| 2026-05-04 14:25 | 41.33760 | 1.72673 | 17985 ft | 366 kts | 310° |
| 2026-05-04 14:26 | 41.34958 | 1.71085 | 18412 ft | 369 kts | 310° |
| 2026-05-04 14:26 | 41.36786 | 1.68658 | 19038 ft | 373 kts | 309° |
| 2026-05-04 14:26 | 41.38631 | 1.66202 | 19683 ft | 377 kts | 309° |
| 2026-05-04 14:26 | 41.40490 | 1.63725 | 20337 ft | 380 kts | 309° |
| 2026-05-04 14:27 | 41.42363 | 1.61223 | 20974 ft | 383 kts | 309° |
| 2026-05-04 14:27 | 41.44248 | 1.58695 | 21590 ft | 386 kts | 309° |
| 2026-05-04 14:27 | 41.46149 | 1.56145 | 22181 ft | 389 kts | 309° |
| 2026-05-04 14:27 | 41.47920 | 1.53435 | 22792 ft | 386 kts | 299° |
| 2026-05-04 14:28 | 41.49269 | 1.50368 | 23411 ft | 382 kts | 289° |
| 2026-05-04 14:28 | 41.50156 | 1.47055 | 23905 ft | 378 kts | 278° |
| 2026-05-04 14:28 | 41.50566 | 1.43611 | 24401 ft | 375 kts | 270° |
| 2026-05-04 14:28 | 41.50775 | 1.40133 | 24906 ft | 377 kts | 270° |
| 2026-05-04 14:29 | 41.51211 | 1.33105 | 25888 ft | 383 kts | 270° |
| 2026-05-04 14:29 | 41.51659 | 1.25978 | 26864 ft | 388 kts | 270° |
| 2026-05-04 14:30 | 41.51883 | 1.22377 | 27341 ft | 390 kts | 270° |
| 2026-05-04 14:30 | 41.52109 | 1.18756 | 27789 ft | 393 kts | 270° |
| 2026-05-04 14:30 | 41.52562 | 1.11444 | 28754 ft | 398 kts | 269° |
| 2026-05-04 14:31 | 41.53097 | 1.07782 | 28890 ft | 406 kts | 283° |
| 2026-05-04 14:31 | 41.56247 | 1.01608 | 28923 ft | 410 kts | 303° |
| 2026-05-04 14:32 | 41.60028 | 0.95900 | 28898 ft | 410 kts | 303° |
| 2026-05-04 14:32 | 41.63802 | 0.90184 | 28910 ft | 410 kts | 303° |
| 2026-05-04 14:33 | 41.67558 | 0.84445 | 28921 ft | 410 kts | 303° |
| 2026-05-04 14:33 | 41.71310 | 0.78700 | 28930 ft | 410 kts | 303° |
| 2026-05-04 14:34 | 41.75057 | 0.72947 | 28973 ft | 410 kts | 303° |
| 2026-05-04 14:34 | 41.78800 | 0.67187 | 28977 ft | 410 kts | 303° |
| 2026-05-04 14:35 | 41.82549 | 0.61414 | 28969 ft | 411 kts | 303° |
| 2026-05-04 14:35 | 41.86294 | 0.55632 | 28945 ft | 410 kts | 303° |
| 2026-05-04 14:36 | 41.90040 | 0.49848 | 28931 ft | 411 kts | 303° |
| 2026-05-04 14:36 | 41.93783 | 0.44056 | 28923 ft | 411 kts | 303° |
| 2026-05-04 14:37 | 41.97460 | 0.38205 | 28932 ft | 405 kts | 297° |
| 2026-05-04 14:37 | 42.00121 | 0.31740 | 28943 ft | 396 kts | 288° |
| 2026-05-04 14:38 | 42.02597 | 0.25126 | 28938 ft | 396 kts | 289° |
| 2026-05-04 14:38 | 42.05080 | 0.18516 | 28930 ft | 396 kts | 289° |
| 2026-05-04 14:39 | 42.07560 | 0.11907 | 28918 ft | 396 kts | 289° |
| 2026-05-04 14:39 | 42.10032 | 0.05286 | 28912 ft | 396 kts | 289° |
| 2026-05-04 14:40 | 42.13727 | -0.04652 | 28935 ft | 396 kts | 289° |
| 2026-05-04 14:40 | 42.16195 | -0.11302 | 28918 ft | 397 kts | 289° |
| 2026-05-04 14:41 | 42.18653 | -0.17972 | 28911 ft | 398 kts | 289° |
| 2026-05-04 14:42 | 42.23582 | -0.31353 | 28903 ft | 399 kts | 289° |
| 2026-05-04 14:42 | 42.26046 | -0.38078 | 28905 ft | 400 kts | 289° |
| 2026-05-04 14:43 | 42.28511 | -0.44807 | 28910 ft | 400 kts | 289° |
| 2026-05-04 14:43 | 42.30973 | -0.51553 | 28912 ft | 400 kts | 290° |
| 2026-05-04 14:44 | 42.33434 | -0.58299 | 28918 ft | 400 kts | 289° |
| 2026-05-04 14:44 | 42.35892 | -0.65046 | 28913 ft | 400 kts | 290° |
| 2026-05-04 14:45 | 42.38338 | -0.71799 | 28917 ft | 400 kts | 289° |
| 2026-05-04 14:45 | 42.40781 | -0.78564 | 28969 ft | 401 kts | 290° |
| 2026-05-04 14:46 | 42.43229 | -0.85359 | 28932 ft | 402 kts | 290° |
| 2026-05-04 14:46 | 42.45687 | -0.92167 | 28929 ft | 403 kts | 290° |
| 2026-05-04 14:47 | 42.48148 | -0.98997 | 28913 ft | 403 kts | 290° |
| 2026-05-04 14:47 | 42.50598 | -1.05843 | 28931 ft | 404 kts | 290° |
| 2026-05-04 14:48 | 42.53038 | -1.12663 | 28946 ft | 405 kts | 290° |
| 2026-05-04 14:48 | 42.55497 | -1.19551 | 28933 ft | 407 kts | 290° |
| 2026-05-04 14:49 | 42.57966 | -1.26508 | 28928 ft | 411 kts | 290° |
| 2026-05-04 14:49 | 42.60452 | -1.33506 | 28941 ft | 413 kts | 290° |
| 2026-05-04 14:50 | 42.62953 | -1.40548 | 28967 ft | 415 kts | 290° |
| 2026-05-04 14:50 | 42.65456 | -1.47616 | 28511 ft | 415 kts | 290° |
| 2026-05-04 14:51 | 42.66700 | -1.51151 | 27783 ft | 414 kts | 290° |
| 2026-05-04 14:51 | 42.67940 | -1.54683 | 27103 ft | 414 kts | 290° |
| 2026-05-04 14:51 | 42.69178 | -1.58212 | 26403 ft | 413 kts | 290° |
| 2026-05-04 14:51 | 42.70411 | -1.61733 | 25721 ft | 412 kts | 290° |
| 2026-05-04 14:52 | 42.71638 | -1.65239 | 25068 ft | 410 kts | 290° |
| 2026-05-04 14:52 | 42.72865 | -1.68736 | 24419 ft | 409 kts | 291° |
| 2026-05-04 14:52 | 42.74276 | -1.72111 | 23781 ft | 412 kts | 298° |
| 2026-05-04 14:52 | 42.75821 | -1.75381 | 23074 ft | 410 kts | 298° |
| 2026-05-04 14:53 | 42.77358 | -1.78641 | 22342 ft | 408 kts | 298° |
| 2026-05-04 14:53 | 42.78887 | -1.81889 | 21612 ft | 406 kts | 298° |
| 2026-05-04 14:53 | 42.80405 | -1.85125 | 20907 ft | 404 kts | 298° |
| 2026-05-04 14:53 | 42.81895 | -1.88293 | 20204 ft | 390 kts | 298° |
| 2026-05-04 14:54 | 42.83332 | -1.91343 | 19550 ft | 376 kts | 298° |
| 2026-05-04 14:54 | 42.84721 | -1.94299 | 18897 ft | 366 kts | 298° |
| 2026-05-04 14:54 | 42.86080 | -1.97202 | 18246 ft | 361 kts | 298° |
| 2026-05-04 14:54 | 42.87416 | -2.00066 | 17509 ft | 354 kts | 298° |
| 2026-05-04 14:55 | 42.88718 | -2.02855 | 16807 ft | 343 kts | 298° |
| 2026-05-04 14:55 | 42.89981 | -2.05559 | 16103 ft | 333 kts | 298° |
| 2026-05-04 14:55 | 42.91225 | -2.08184 | 15423 ft | 326 kts | 302° |
| 2026-05-04 14:55 | 42.92613 | -2.10612 | 14768 ft | 332 kts | 305° |
| 2026-05-04 14:56 | 42.94074 | -2.13068 | 14151 ft | 335 kts | 306° |
| 2026-05-04 14:56 | 42.95552 | -2.15507 | 13514 ft | 329 kts | 307° |
| 2026-05-04 14:56 | 42.96991 | -2.17868 | 12852 ft | 318 kts | 307° |
| 2026-05-04 14:56 | 42.98388 | -2.20163 | 12200 ft | 311 kts | 307° |
| 2026-05-04 14:57 | 42.99752 | -2.22415 | 11574 ft | 304 kts | 307° |
| 2026-05-04 14:57 | 43.01084 | -2.24630 | 10955 ft | 299 kts | 307° |
| 2026-05-04 14:57 | 43.02389 | -2.26812 | 10336 ft | 294 kts | 307° |
| 2026-05-04 14:57 | 43.03673 | -2.28964 | 9714 ft | 290 kts | 307° |
| 2026-05-04 14:58 | 43.04934 | -2.31077 | 9056 ft | 284 kts | 308° |
| 2026-05-04 14:58 | 43.06178 | -2.33162 | 8413 ft | 283 kts | 308° |
| 2026-05-04 14:58 | 43.07426 | -2.35257 | 7770 ft | 286 kts | 309° |
| 2026-05-04 14:58 | 43.08687 | -2.37376 | 7140 ft | 288 kts | 309° |
| 2026-05-04 14:59 | 43.09956 | -2.39507 | 6528 ft | 290 kts | 310° |
| 2026-05-04 14:59 | 43.11215 | -2.41621 | 6064 ft | 278 kts | 310° |
| 2026-05-04 14:59 | 43.13295 | -2.45554 | 5635 ft | 241 kts | 299° |
| 2026-05-04 15:00 | 43.14047 | -2.47579 | 5198 ft | 235 kts | 299° |
| 2026-05-04 15:00 | 43.14770 | -2.49532 | 5050 ft | 229 kts | 299° |
| 2026-05-04 15:00 | 43.15487 | -2.51469 | 4977 ft | 222 kts | 298° |
| 2026-05-04 15:01 | 43.16815 | -2.55055 | 4983 ft | 207 kts | 299° |
| 2026-05-04 15:01 | 43.17469 | -2.56816 | 4982 ft | 208 kts | 299° |
| 2026-05-04 15:01 | 43.18124 | -2.58578 | 4983 ft | 207 kts | 300° |
| 2026-05-04 15:01 | 43.18774 | -2.60331 | 4986 ft | 205 kts | 300° |
| 2026-05-04 15:02 | 43.19421 | -2.62074 | 4988 ft | 205 kts | 300° |
| 2026-05-04 15:02 | 43.20062 | -2.63805 | 4914 ft | 203 kts | 298° |
| 2026-05-04 15:02 | 43.20696 | -2.65519 | 4662 ft | 201 kts | 298° |
| 2026-05-04 15:02 | 43.21331 | -2.67232 | 4363 ft | 202 kts | 298° |
| 2026-05-04 15:03 | 43.21970 | -2.68959 | 4055 ft | 204 kts | 298° |
| 2026-05-04 15:03 | 43.22610 | -2.70691 | 3732 ft | 201 kts | 298° |
| 2026-05-04 15:03 | 43.23229 | -2.72368 | 3453 ft | 194 kts | 298° |
| 2026-05-04 15:03 | 43.23826 | -2.73985 | 3176 ft | 186 kts | 298° |
| 2026-05-04 15:04 | 43.24397 | -2.75534 | 2886 ft | 179 kts | 298° |
| 2026-05-04 15:04 | 43.24938 | -2.76999 | 2607 ft | 165 kts | 298° |
| 2026-05-04 15:04 | 43.25435 | -2.78350 | 2387 ft | 152 kts | 298° |
| 2026-05-04 15:04 | 43.25889 | -2.79583 | 2158 ft | 138 kts | 299° |
| 2026-05-04 15:05 | 43.26314 | -2.80734 | 1932 ft | 132 kts | 299° |
| 2026-05-04 15:05 | 43.26724 | -2.81843 | 1696 ft | 131 kts | 300° |
| 2026-05-04 15:05 | 43.27139 | -2.82938 | 1477 ft | 129 kts | 298° |
| 2026-05-04 15:05 | 43.27534 | -2.84058 | 1288 ft | 132 kts | 297° |
| 2026-05-04 15:06 | 43.27942 | -2.85199 | 1053 ft | 133 kts | 299° |
| 2026-05-04 15:06 | 43.28367 | -2.86310 | 837 ft | 130 kts | 298° |
| 2026-05-04 15:06 | 43.28780 | -2.87420 | 646 ft | 130 kts | 300° |
| 2026-05-04 15:07 | 43.29563 | -2.89568 | 276 ft | 124 kts | 298° |
| 2026-05-04 15:07 | 43.29952 | -2.90634 | 127 ft | 120 kts | 299° |
| 2026-05-04 15:07 | 43.30225 | -2.91366 | 124 ft | 51 kts | 296° |
| 2026-05-04 15:07 | 43.30375 | -2.91781 | 126 ft | 31 kts | 301° |
| 2026-05-04 15:08 | 43.30511 | -2.91978 | 125 ft | 15 kts | 321° |
| 2026-05-04 15:08 | 43.30589 | -2.92043 | 132 ft | 15 kts | 339° |
| 2026-05-04 15:08 | 43.30620 | -2.91939 | 132 ft | 19 kts | 109° |
| 2026-05-04 15:08 | 43.30558 | -2.91777 | 132 ft | 20 kts | 117° |
| 2026-05-04 15:09 | 43.30490 | -2.91590 | 132 ft | 25 kts | 116° |
| 2026-05-04 15:09 | 43.30416 | -2.91388 | 132 ft | 22 kts | 116° |
| 2026-05-04 15:09 | 43.30337 | -2.91171 | 132 ft | 23 kts | 116° |
| 2026-05-04 15:10 | 43.30414 | -2.90936 | 132 ft | 18 kts | 79° |
| 2026-05-04 15:10 | 43.30399 | -2.90772 | 132 ft | 14 kts | 118° |
| 2026-05-04 15:10 | 43.30359 | -2.90605 | 132 ft | 6 kts | 26° |
| 2026-05-04 15:11 | 43.30382 | -2.90595 | 132 ft | 1 kts | 22° |
| 2026-05-04 15:11 | 43.30405 | -2.90580 | 132 ft | 4 kts | 27° |
| 2026-05-04 15:11 | 43.30406 | -2.90579 | 132 ft | 0 kts | 27° |